createdAt,value
2022-08-29T00:03:54.011Z,28.38
2022-08-29T00:08:51.514Z,28.30
2022-08-29T00:13:48.248Z,28.50
2022-08-29T00:18:45.218Z,28.54
2022-08-29T00:23:43.762Z,28.79
2022-08-29T00:28:41.008Z,28.58
2022-08-29T00:33:39.380Z,28.53
2022-08-29T00:38:36.247Z,28.69
2022-08-29T00:43:34.292Z,29.18
2022-08-29T00:48:34.037Z,29.76
2022-08-29T00:53:33.770Z,30.19
2022-08-29T00:58:31.933Z,30.42
2022-08-29T01:03:30.617Z,30.63
2022-08-29T01:08:28.021Z,30.50
2022-08-29T01:13:27.660Z,30.61
2022-08-29T01:18:24.333Z,30.82
2022-08-29T01:23:23.294Z,30.81
2022-08-29T01:28:23.054Z,30.67
2022-08-29T01:33:19.613Z,30.12
2022-08-29T01:38:26.964Z,30.10
2022-08-29T01:43:25.143Z,29.76
2022-08-29T01:48:22.001Z,29.98
2022-08-29T01:53:18.553Z,30.18
2022-08-29T01:58:15.949Z,30.26
2022-08-29T02:03:13.352Z,30.10
2022-08-29T02:08:09.971Z,29.59
2022-08-29T02:13:06.608Z,29.58
2022-08-29T02:18:03.233Z,29.85
2022-08-29T02:23:00.466Z,30.00
2022-08-29T02:27:57.093Z,29.99
2022-08-29T02:32:53.852Z,29.81
2022-08-29T02:37:50.393Z,29.55
2022-08-29T02:42:47.719Z,28.68
2022-08-29T02:47:44.333Z,27.83
2022-08-29T02:52:41.442Z,27.45
2022-08-29T02:57:38.065Z,27.22
2022-08-29T03:02:35.269Z,27.03
2022-08-29T03:07:31.883Z,26.89
2022-08-29T03:12:28.548Z,26.96
2022-08-29T03:17:28.798Z,26.96
2022-08-29T03:22:26.538Z,26.77
2022-08-29T03:27:23.116Z,26.77
2022-08-29T03:32:19.724Z,26.65
2022-08-29T03:37:16.316Z,26.87
2022-08-29T03:42:13.586Z,26.96
2022-08-29T03:47:10.178Z,26.99
2022-08-29T03:52:08.791Z,27.17
2022-08-29T03:57:05.571Z,27.48
2022-08-29T04:02:03.035Z,27.46
2022-08-29T04:07:00.192Z,27.85
2022-08-29T04:11:56.753Z,27.58
2022-08-29T04:16:53.301Z,27.27
2022-08-29T04:21:50.722Z,26.84
2022-08-29T04:26:47.291Z,26.29
2022-08-29T04:31:44.607Z,26.09
2022-08-29T04:36:42.368Z,26.02
2022-08-29T04:41:40.022Z,25.92
2022-08-29T04:46:36.624Z,25.84
2022-08-29T04:51:34.928Z,25.79
2022-08-29T04:56:31.476Z,25.87
2022-08-29T05:01:28.769Z,25.95
2022-08-29T05:06:25.368Z,26.34
2022-08-29T05:11:22.698Z,27.17
2022-08-29T05:16:19.705Z,27.47
2022-08-29T05:21:23.716Z,27.37
2022-08-29T05:26:22.664Z,27.50
2022-08-29T05:31:21.564Z,27.35
2022-08-29T05:36:18.228Z,27.32
2022-08-29T05:41:15.474Z,27.63
2022-08-29T05:46:12.109Z,28.14
2022-08-29T05:51:14.202Z,28.52
2022-08-29T05:56:10.803Z,28.88
2022-08-29T06:01:08.095Z,29.05
2022-08-29T06:06:04.923Z,28.66
2022-08-29T06:11:01.474Z,27.66
2022-08-29T06:15:58.139Z,27.35
2022-08-29T06:20:55.456Z,27.42
2022-08-29T06:25:55.242Z,27.36
2022-08-29T06:30:52.178Z,27.76
2022-08-29T06:35:49.103Z,28.24
2022-08-29T06:40:46.805Z,28.09
2022-08-29T06:45:43.724Z,27.86
2022-08-29T06:50:45.319Z,27.87
2022-08-29T06:55:42.468Z,28.08
2022-08-29T07:00:41.219Z,28.39
2022-08-29T07:05:38.011Z,28.83
2022-08-29T07:10:34.566Z,29.06
2022-08-29T07:15:31.536Z,29.17
2022-08-29T07:20:28.856Z,29.44
2022-08-29T07:25:27.017Z,29.45
2022-08-29T07:30:24.083Z,29.75
2022-08-29T07:35:29.993Z,29.76
2022-08-29T07:40:30.905Z,29.88
2022-08-29T07:45:27.526Z,29.87
2022-08-29T07:50:24.156Z,29.94
2022-08-29T07:55:21.687Z,30.18
2022-08-29T08:00:19.102Z,30.31
2022-08-29T08:05:18.563Z,30.54
2022-08-29T08:10:16.976Z,30.76
2022-08-29T08:15:13.733Z,30.86
2022-08-29T08:20:11.738Z,31.08
2022-08-29T08:25:08.846Z,31.29
2022-08-29T08:30:06.206Z,31.53
2022-08-29T08:35:03.182Z,31.64
2022-08-29T08:40:00.552Z,31.76
2022-08-29T08:45:03.135Z,31.94
2022-08-29T08:50:03.951Z,32.12
2022-08-29T08:55:02.796Z,32.12
2022-08-29T08:59:59.398Z,32.34
2022-08-29T09:04:59.587Z,32.42
2022-08-29T09:10:03.618Z,32.53
2022-08-29T09:15:04.123Z,32.63
2022-08-29T09:20:01.213Z,32.77
2022-08-29T09:24:59.829Z,32.89
2022-08-29T09:30:01.141Z,32.97
2022-08-29T09:35:08.805Z,33.12
2022-08-29T09:40:10.213Z,33.15
2022-08-29T09:45:15.390Z,33.29
2022-08-29T09:50:18.531Z,33.30
2022-08-29T09:55:27.692Z,33.28
2022-08-29T10:00:25.881Z,33.36
2022-08-29T10:05:29.078Z,33.40
2022-08-29T10:10:27.113Z,33.38
2022-08-29T10:15:47.036Z,33.54
2022-08-29T10:20:50.274Z,33.61
2022-08-29T10:25:47.233Z,33.69
2022-08-29T10:30:48.542Z,33.78
2022-08-29T10:35:54.531Z,33.94
2022-08-29T10:40:55.102Z,33.91
2022-08-29T10:46:12.512Z,34.00
2022-08-29T10:51:20.256Z,34.11
2022-08-29T10:56:20.816Z,34.10
2022-08-29T11:01:20.580Z,34.18
2022-08-29T11:06:22.689Z,34.27
2022-08-29T11:11:21.883Z,34.31
2022-08-29T11:16:21.121Z,34.41
2022-08-29T11:21:28.517Z,34.47
2022-08-29T11:26:31.759Z,34.52
2022-08-29T11:31:37.350Z,34.39
2022-08-29T11:36:45.713Z,34.39
2022-08-29T11:41:43.778Z,34.39
2022-08-29T11:46:42.057Z,34.40
2022-08-29T11:51:40.125Z,34.39
2022-08-29T11:56:37.191Z,34.36
2022-08-29T12:01:52.409Z,34.36
2022-08-29T12:06:56.722Z,34.40
2022-08-29T12:12:12.119Z,34.42
2022-08-29T12:17:10.011Z,34.44
2022-08-29T12:22:07.410Z,34.50
2022-08-29T12:27:23.143Z,34.51
2022-08-29T12:32:40.002Z,34.66
2022-08-29T12:37:45.271Z,34.80
2022-08-29T12:42:48.080Z,34.91
2022-08-29T12:47:50.787Z,35.07
2022-08-29T12:52:59.035Z,35.31
2022-08-29T12:57:56.911Z,35.22
2022-08-29T13:03:01.076Z,35.08
2022-08-29T13:08:00.415Z,34.59
2022-08-29T13:13:04.582Z,34.33
2022-08-29T13:18:01.725Z,34.34
2022-08-29T13:23:15.109Z,34.40
2022-08-29T13:28:16.222Z,34.32
2022-08-29T13:33:27.040Z,34.35
2022-08-29T13:38:32.502Z,34.55
2022-08-29T13:43:33.174Z,34.37
2022-08-29T13:48:29.893Z,34.62
2022-08-29T13:53:26.569Z,34.40
2022-08-29T13:58:26.199Z,34.69
2022-08-29T14:03:23.317Z,34.56
2022-08-29T14:08:21.445Z,34.57
2022-08-29T14:13:18.170Z,34.69
2022-08-29T14:18:15.954Z,34.67
2022-08-29T14:23:12.897Z,34.73
2022-08-29T14:28:09.658Z,34.82
2022-08-29T14:33:10.720Z,34.83
2022-08-29T14:38:11.175Z,34.66
2022-08-29T14:43:10.093Z,34.61
2022-08-29T14:48:06.769Z,34.43
2022-08-29T14:53:03.928Z,34.39
2022-08-29T14:58:01.471Z,34.44
2022-08-29T15:02:59.316Z,34.54
2022-08-29T15:07:56.266Z,34.49
2022-08-29T15:12:53.152Z,34.55
2022-08-29T15:17:50.500Z,34.71
2022-08-29T15:22:47.192Z,34.86
2022-08-29T15:27:43.999Z,34.90
2022-08-29T15:32:40.675Z,34.95
2022-08-29T15:37:38.133Z,34.96
2022-08-29T15:42:34.881Z,34.96
2022-08-29T15:47:31.792Z,34.94
2022-08-29T15:52:30.822Z,34.85
2022-08-29T15:57:28.847Z,34.75
2022-08-29T16:02:25.718Z,34.72
2022-08-29T16:07:22.507Z,34.75
2022-08-29T16:12:19.225Z,34.81
2022-08-29T16:17:16.561Z,34.79
2022-08-29T16:22:13.229Z,34.82
2022-08-29T16:27:09.939Z,34.83
2022-08-29T16:32:08.030Z,34.80
2022-08-29T16:37:05.436Z,34.63
2022-08-29T16:42:02.275Z,33.88
2022-08-29T16:46:58.896Z,33.86
2022-08-29T16:51:56.859Z,33.93
2022-08-29T16:56:54.646Z,34.03
2022-08-29T17:01:53.277Z,34.12
2022-08-29T17:06:51.252Z,34.12
2022-08-29T17:11:47.530Z,34.10
2022-08-29T17:16:46.242Z,34.04
2022-08-29T17:21:43.347Z,33.93
2022-08-29T17:26:42.592Z,33.74
2022-08-29T17:31:39.767Z,33.67
2022-08-29T17:36:37.900Z,33.88
2022-08-29T17:41:36.759Z,33.95
2022-08-29T17:46:34.492Z,33.59
2022-08-29T17:51:31.224Z,33.66
2022-08-29T17:56:38.911Z,33.53
2022-08-29T18:01:41.368Z,33.42
2022-08-29T18:06:38.346Z,33.46
2022-08-29T18:11:37.425Z,33.65
2022-08-29T18:16:34.210Z,33.41
2022-08-29T18:21:32.306Z,33.43
2022-08-29T18:26:29.044Z,33.26
2022-08-29T18:31:26.414Z,33.16
2022-08-29T18:36:23.154Z,33.29
2022-08-29T18:41:19.911Z,33.45
2022-08-29T18:46:16.716Z,33.51
2022-08-29T18:51:14.424Z,33.40
2022-08-29T18:56:11.573Z,33.25
2022-08-29T19:01:12.257Z,33.26
2022-08-29T19:06:09.994Z,33.23
2022-08-29T19:11:07.472Z,33.11
2022-08-29T19:16:05.527Z,32.75
2022-08-29T19:21:02.270Z,32.99
2022-08-29T19:25:59.171Z,33.01
2022-08-29T19:30:56.790Z,32.56
2022-08-29T19:35:53.513Z,32.57
2022-08-29T19:40:55.091Z,32.79
2022-08-29T19:45:54.327Z,32.58
2022-08-29T19:50:53.945Z,32.38
2022-08-29T19:55:50.829Z,32.28
2022-08-29T20:00:47.602Z,32.05
2022-08-29T20:05:44.358Z,31.82
2022-08-29T20:10:44.354Z,32.01
2022-08-29T20:15:46.808Z,31.45
2022-08-29T20:20:43.930Z,31.68
2022-08-29T20:25:41.307Z,31.65
2022-08-29T20:30:37.921Z,31.96
2022-08-29T20:35:52.688Z,31.78
2022-08-29T20:40:49.932Z,31.64
2022-08-29T20:45:46.665Z,31.48
2022-08-29T20:50:43.216Z,30.70
2022-08-29T20:55:40.403Z,30.55
2022-08-29T21:00:37.876Z,30.13
2022-08-29T21:05:40.379Z,29.76
2022-08-29T21:10:37.038Z,29.90
2022-08-29T21:15:33.656Z,29.61
2022-08-29T21:20:31.272Z,29.74
2022-08-29T21:25:27.850Z,29.87
2022-08-29T21:30:24.489Z,29.54
2022-08-29T21:35:21.453Z,29.49
2022-08-29T21:40:24.315Z,29.37
2022-08-29T21:45:21.191Z,29.43
2022-08-29T21:50:18.327Z,29.65
2022-08-29T21:55:15.014Z,29.77
2022-08-29T22:00:13.811Z,30.07
2022-08-29T22:05:10.367Z,30.15
2022-08-29T22:10:07.407Z,29.82
2022-08-29T22:15:22.551Z,30.19
2022-08-29T22:20:19.944Z,30.18
2022-08-29T22:25:16.496Z,30.32
2022-08-29T22:30:17.001Z,29.56
2022-08-29T22:35:13.927Z,29.35
2022-08-29T22:40:12.984Z,29.90
2022-08-29T22:45:10.372Z,30.13
2022-08-29T22:50:08.899Z,29.84
2022-08-29T22:55:05.608Z,30.24
2022-08-29T23:00:03.852Z,30.31
2022-08-29T23:05:00.395Z,29.84
2022-08-29T23:09:56.958Z,30.13
2022-08-29T23:14:53.621Z,29.48
2022-08-29T23:19:50.893Z,29.23
2022-08-29T23:24:57.796Z,29.04
2022-08-29T23:29:55.946Z,28.63
2022-08-29T23:34:53.154Z,28.19
2022-08-29T23:39:50.183Z,28.45
2022-08-29T23:44:48.239Z,28.70
2022-08-29T23:49:45.234Z,29.06
2022-08-29T23:54:42.442Z,28.97
2022-08-29T23:59:57.599Z,28.35
